»·PEaware :: AAL1597 KSLC-KPHX

AAL1597 :: KSLC-KPHX

FLIGHT INFORMATION

Flight Status: Arrived
Operator:
American Airlines
More flights by this operator :: More flights under this callsign
Pilot: Ben F. (2808)
Aircraft: MCDONNELL-DOUGLAS MD-82
(MD82)
More flights by this aircraft type
Origin: KSLC Salt Lake City Intl
United States
Destination: KPHX Phoenix Sky Harbor Intl
United States
More flights between these airports :: More routes between these airports
Route: +WEVIC6 BCE CORKR TENTS BRUSR1
File this flight plan on PilotEdge
Remarks:
Altitude:
(Current/Filed)
31,000ft
Speed:
(Current/Filed)
435kts
Departed: 18-Apr-18 08:29 AM
Arrived: 18-Apr-18 09:46 AM
Distance/Time
Traveled:
441nm/1:17
Distance/Time
To Go:
Arrived

Flight Plot

Page will automatically refresh every two minutes.

Flight plan parsing failed; only flown route is shown


Map Options




Map Legend


Flown Route
Filed Route
Departure Airport
Arrival Airport
Navaid (VOR, NDB)
Fix

Horizontal Profiles

Position Reports

Time Latitude Longitude Heading Altitude Ground
Speed
18-Apr-18 08:05 40.785703 -111.978715 242 4236ft 0kts
18-Apr-18 08:06 40.785703 -111.978715 242 4236ft 0kts
18-Apr-18 08:07 40.785703 -111.978715 242 4236ft 0kts
18-Apr-18 08:08 40.785703 -111.978715 242 4236ft 0kts
18-Apr-18 08:09 40.785703 -111.978715 242 4236ft 0kts
18-Apr-18 08:10 40.785703 -111.978715 242 4236ft 0kts
18-Apr-18 08:11 40.785703 -111.978715 242 4236ft 0kts
18-Apr-18 08:12 40.785703 -111.978715 242 4236ft 0kts
18-Apr-18 08:13 40.785703 -111.978715 242 4236ft 0kts
18-Apr-18 08:14 40.785703 -111.978715 242 4236ft 0kts
18-Apr-18 08:15 40.785777 -111.978551 223 4236ft 2kts
18-Apr-18 08:16 40.786002 -111.978721 89 4236ft 2kts
18-Apr-18 08:17 40.786002 -111.978812 89 4236ft 0kts
18-Apr-18 08:18 40.786002 -111.978809 89 4236ft 0kts
18-Apr-18 08:19 40.786002 -111.978805 89 4236ft 0kts
18-Apr-18 08:20 40.786100 -111.978218 76 4236ft 1kts
18-Apr-18 08:21 40.786760 -111.976796 11 4236ft 12kts
18-Apr-18 08:22 40.791608 -111.977338 354 4236ft 17kts
18-Apr-18 08:23 40.796544 -111.977900 355 4236ft 16kts
18-Apr-18 08:24 40.802191 -111.978554 353 4236ft 20kts
18-Apr-18 08:25 40.807003 -111.979129 353 4236ft 14kts
18-Apr-18 08:26 40.807504 -111.978479 82 4236ft 0kts
18-Apr-18 08:27 40.807024 -111.976998 144 4236ft 7kts
18-Apr-18 08:28 40.804104 -111.976499 175 4236ft 53kts
18-Apr-18 08:29 40.767626 -111.972548 174 4930ft 167kts
18-Apr-18 08:30 40.720146 -111.965521 170 7080ft 177kts
18-Apr-18 08:31 40.667227 -111.960484 176 8365ft 208kts
18-Apr-18 08:32 40.602600 -111.956829 177 9617ft 264kts
18-Apr-18 08:33 40.522377 -111.953723 178 10732ft 313kts
18-Apr-18 08:34 40.432334 -111.950439 178 12662ft 330kts
18-Apr-18 08:35 40.338913 -111.943898 178 14498ft 340kts
18-Apr-18 08:36 40.243165 -111.939626 187 16166ft 347kts
18-Apr-18 08:37 40.146854 -111.956397 192 17683ft 353kts
18-Apr-18 08:38 40.048196 -111.972569 191 19059ft 360kts
18-Apr-18 08:39 39.948076 -111.986982 191 20301ft 365kts
18-Apr-18 08:40 39.846371 -112.002246 192 22095ft 372kts
18-Apr-18 08:41 39.759632 -112.014845 193 23665ft 378kts
18-Apr-18 08:42 39.636335 -112.032567 193 25539ft 386kts
18-Apr-18 08:43 39.528292 -112.048065 193 26933ft 392kts
18-Apr-18 08:44 39.419140 -112.064234 193 28114ft 398kts
18-Apr-18 08:45 39.308013 -112.080009 193 28922ft 409kts
18-Apr-18 08:46 39.193438 -112.096395 193 29678ft 416kts
18-Apr-18 08:47 39.078349 -112.112881 193 30600ft 415kts
18-Apr-18 08:48 38.963947 -112.129010 193 31297ft 415kts
18-Apr-18 08:49 38.849807 -112.145046 193 31299ft 414kts
18-Apr-18 08:50 38.754933 -112.158539 193 31294ft 413kts
18-Apr-18 08:51 38.640553 -112.174865 192 31294ft 414kts
18-Apr-18 08:52 38.526288 -112.190320 192 31295ft 414kts
18-Apr-18 08:53 38.412121 -112.205822 192 31299ft 413kts
18-Apr-18 08:54 38.297694 -112.222259 192 31303ft 413kts
18-Apr-18 08:55 38.183335 -112.237314 191 31304ft 414kts
18-Apr-18 08:56 38.068515 -112.252772 192 31307ft 414kts
18-Apr-18 08:57 37.954173 -112.268639 192 31305ft 414kts
18-Apr-18 08:58 37.839419 -112.284228 191 31306ft 415kts
18-Apr-18 08:59 37.724747 -112.298155 192 31308ft 414kts
18-Apr-18 09:00 37.610011 -112.311243 189 31308ft 415kts
18-Apr-18 09:01 37.494037 -112.317179 188 31305ft 416kts
18-Apr-18 09:02 37.378299 -112.323542 188 31302ft 416kts
18-Apr-18 09:03 37.262594 -112.330190 189 31299ft 416kts
18-Apr-18 09:04 37.146516 -112.337183 188 31299ft 417kts
18-Apr-18 09:05 37.030572 -112.343781 188 31299ft 417kts
18-Apr-18 09:06 36.914275 -112.350930 189 31303ft 417kts
18-Apr-18 09:07 36.798281 -112.358158 188 31296ft 418kts
18-Apr-18 09:08 36.682081 -112.365001 188 31302ft 418kts
18-Apr-18 09:09 36.565490 -112.371832 188 31301ft 419kts
18-Apr-18 09:10 36.449125 -112.378818 188 31301ft 419kts
18-Apr-18 09:11 36.332317 -112.382278 187 31300ft 420kts
18-Apr-18 09:12 36.215366 -112.388175 189 31300ft 419kts
18-Apr-18 09:13 36.098944 -112.397318 189 31300ft 420kts
18-Apr-18 09:14 35.982779 -112.408779 190 31300ft 419kts
18-Apr-18 09:15 35.866001 -112.419391 189 31293ft 420kts
18-Apr-18 09:16 35.749463 -112.429049 189 31286ft 420kts
18-Apr-18 09:17 35.633118 -112.439983 189 31186ft 421kts
18-Apr-18 09:18 35.517732 -112.449826 189 29342ft 408kts
18-Apr-18 09:19 35.405154 -112.440083 175 29264ft 416kts
18-Apr-18 09:20 35.289925 -112.412300 175 29253ft 422kts
18-Apr-18 09:21 35.174514 -112.388654 176 29245ft 420kts
18-Apr-18 09:22 35.059166 -112.363966 175 29242ft 422kts
18-Apr-18 09:23 34.943720 -112.338281 175 28990ft 418kts
18-Apr-18 09:24 34.829324 -112.313675 175 28432ft 417kts
18-Apr-18 09:25 34.715842 -112.288346 174 27013ft 409kts
18-Apr-18 09:26 34.604046 -112.263215 174 25950ft 403kts
18-Apr-18 09:27 34.494742 -112.239267 174 24523ft 395kts
18-Apr-18 09:28 34.387776 -112.214878 171 22754ft 387kts
18-Apr-18 09:29 34.283999 -112.187413 171 20751ft 373kts
18-Apr-18 09:30 34.184425 -112.161378 170 18752ft 360kts
18-Apr-18 09:31 34.092655 -112.138023 171 16719ft 316kts
18-Apr-18 09:32 34.008901 -112.141401 189 14730ft 297kts
18-Apr-18 09:33 33.927308 -112.153193 188 12731ft 292kts
18-Apr-18 09:34 33.848692 -112.167552 191 10723ft 276kts
18-Apr-18 09:35 33.775649 -112.183923 188 8872ft 259kts
18-Apr-18 09:36 33.705183 -112.198862 188 7067ft 254kts
18-Apr-18 09:37 33.636739 -112.213583 189 6078ft 235kts
18-Apr-18 09:38 33.573198 -112.227075 188 6018ft 232kts
18-Apr-18 09:39 33.509457 -112.240888 189 5301ft 231kts
18-Apr-18 09:40 33.447014 -112.243787 142 4147ft 226kts
18-Apr-18 09:41 33.439980 -112.181047 90 4021ft 192kts
18-Apr-18 09:42 33.441007 -112.116970 90 3672ft 188kts
18-Apr-18 09:43 33.440811 -112.055559 91 1560ft 183kts
18-Apr-18 09:44 33.440833 -112.010899 89 1144ft 44kts
18-Apr-18 09:45 33.439788 -112.006503 102 1144ft 8kts
18-Apr-18 09:46 33.439135 -112.004407 122 1144ft 12kts
18-Apr-18 09:47 33.438874 -112.000863 128 1144ft 9kts
18-Apr-18 09:48 33.437545 -112.001051 264 1144ft 2kts

Navigation Log

Ident Type
Flight plan parsing failed, navigation log unavailable